sensor_id;sensor_type;location;lat;lon;timestamp;P1;durP1;ratioP1;P2;durP2;ratioP2
49460;SDS011;35355;49.198;-0.368;2024-01-30T00:02:09;16.30;;;6.78;;
49460;SDS011;35355;49.198;-0.368;2024-01-30T00:04:34;14.57;;;6.38;;
49460;SDS011;35355;49.198;-0.368;2024-01-30T00:06:59;14.07;;;5.90;;
49460;SDS011;35355;49.198;-0.368;2024-01-30T00:09:25;11.63;;;6.57;;
49460;SDS011;35355;49.198;-0.368;2024-01-30T00:11:51;13.57;;;6.55;;
49460;SDS011;35355;49.198;-0.368;2024-01-30T00:14:16;14.68;;;6.70;;
49460;SDS011;35355;49.198;-0.368;2024-01-30T00:16:42;15.40;;;6.18;;
49460;SDS011;35355;49.198;-0.368;2024-01-30T00:19:07;14.32;;;7.10;;
49460;SDS011;35355;49.198;-0.368;2024-01-30T00:21:33;17.65;;;8.00;;
49460;SDS011;35355;49.198;-0.368;2024-01-30T00:23:58;18.65;;;7.07;;
49460;SDS011;35355;49.198;-0.368;2024-01-30T00:26:24;21.23;;;7.68;;
49460;SDS011;35355;49.198;-0.368;2024-01-30T00:28:49;16.15;;;7.43;;
49460;SDS011;35355;49.198;-0.368;2024-01-30T00:31:14;13.65;;;7.28;;
49460;SDS011;35355;49.198;-0.368;2024-01-30T00:33:40;23.33;;;7.75;;
49460;SDS011;35355;49.198;-0.368;2024-01-30T00:36:06;17.90;;;6.90;;
49460;SDS011;35355;49.198;-0.368;2024-01-30T00:38:33;17.05;;;7.05;;
49460;SDS011;35355;49.198;-0.368;2024-01-30T00:40:59;16.65;;;6.85;;
49460;SDS011;35355;49.198;-0.368;2024-01-30T00:43:25;28.60;;;7.88;;
49460;SDS011;35355;49.198;-0.368;2024-01-30T00:45:50;12.98;;;6.82;;
49460;SDS011;35355;49.198;-0.368;2024-01-30T00:48:17;17.15;;;7.03;;
49460;SDS011;35355;49.198;-0.368;2024-01-30T00:50:43;16.75;;;7.40;;
49460;SDS011;35355;49.198;-0.368;2024-01-30T00:53:08;19.45;;;8.27;;
49460;SDS011;35355;49.198;-0.368;2024-01-30T00:55:34;17.38;;;8.88;;
49460;SDS011;35355;49.198;-0.368;2024-01-30T00:57:59;15.02;;;8.07;;
49460;SDS011;35355;49.198;-0.368;2024-01-30T01:00:24;11.05;;;7.13;;
49460;SDS011;35355;49.198;-0.368;2024-01-30T01:02:54;12.90;;;7.28;;
49460;SDS011;35355;49.198;-0.368;2024-01-30T01:05:22;13.95;;;7.38;;
49460;SDS011;35355;49.198;-0.368;2024-01-30T01:07:47;18.30;;;8.05;;
49460;SDS011;35355;49.198;-0.368;2024-01-30T01:10:13;17.83;;;6.80;;
49460;SDS011;35355;49.198;-0.368;2024-01-30T01:12:39;14.02;;;6.82;;
49460;SDS011;35355;49.198;-0.368;2024-01-30T01:15:05;14.15;;;7.03;;
49460;SDS011;35355;49.198;-0.368;2024-01-30T01:17:34;15.75;;;6.80;;
49460;SDS011;35355;49.198;-0.368;2024-01-30T01:20:01;15.20;;;8.07;;
49460;SDS011;35355;49.198;-0.368;2024-01-30T01:22:28;13.38;;;7.55;;
49460;SDS011;35355;49.198;-0.368;2024-01-30T01:24:53;17.70;;;7.00;;
49460;SDS011;35355;49.198;-0.368;2024-01-30T01:27:18;20.92;;;8.10;;
49460;SDS011;35355;49.198;-0.368;2024-01-30T01:29:44;16.98;;;7.00;;
49460;SDS011;35355;49.198;-0.368;2024-01-30T01:32:10;20.40;;;6.57;;
49460;SDS011;35355;49.198;-0.368;2024-01-30T01:34:36;20.08;;;7.05;;
49460;SDS011;35355;49.198;-0.368;2024-01-30T01:37:01;14.73;;;7.57;;
49460;SDS011;35355;49.198;-0.368;2024-01-30T01:39:27;14.25;;;6.55;;
49460;SDS011;35355;49.198;-0.368;2024-01-30T01:41:52;18.58;;;7.65;;
49460;SDS011;35355;49.198;-0.368;2024-01-30T01:44:17;20.85;;;7.15;;
49460;SDS011;35355;49.198;-0.368;2024-01-30T01:46:43;23.05;;;7.05;;
49460;SDS011;35355;49.198;-0.368;2024-01-30T01:49:09;16.70;;;7.50;;
49460;SDS011;35355;49.198;-0.368;2024-01-30T01:51:35;13.07;;;6.45;;
49460;SDS011;35355;49.198;-0.368;2024-01-30T01:54:04;25.20;;;8.75;;
49460;SDS011;35355;49.198;-0.368;2024-01-30T01:56:33;23.30;;;8.88;;
49460;SDS011;35355;49.198;-0.368;2024-01-30T01:58:59;22.58;;;7.32;;
49460;SDS011;35355;49.198;-0.368;2024-01-30T02:01:29;20.83;;;6.43;;
49460;SDS011;35355;49.198;-0.368;2024-01-30T02:03:57;19.65;;;7.55;;
49460;SDS011;35355;49.198;-0.368;2024-01-30T02:06:23;17.05;;;6.88;;
49460;SDS011;35355;49.198;-0.368;2024-01-30T02:08:49;15.52;;;7.03;;
49460;SDS011;35355;49.198;-0.368;2024-01-30T02:11:14;20.23;;;7.65;;
49460;SDS011;35355;49.198;-0.368;2024-01-30T02:13:41;18.85;;;6.72;;
49460;SDS011;35355;49.198;-0.368;2024-01-30T02:16:07;15.52;;;7.03;;
49460;SDS011;35355;49.198;-0.368;2024-01-30T02:18:32;16.80;;;6.22;;
49460;SDS011;35355;49.198;-0.368;2024-01-30T02:20:58;15.30;;;5.80;;
49460;SDS011;35355;49.198;-0.368;2024-01-30T02:23:28;25.35;;;7.05;;
49460;SDS011;35355;49.198;-0.368;2024-01-30T02:25:55;16.20;;;5.95;;
49460;SDS011;35355;49.198;-0.368;2024-01-30T02:28:21;14.85;;;5.93;;
49460;SDS011;35355;49.198;-0.368;2024-01-30T02:30:46;25.90;;;7.55;;
49460;SDS011;35355;49.198;-0.368;2024-01-30T02:33:12;21.15;;;6.80;;
49460;SDS011;35355;49.198;-0.368;2024-01-30T02:35:38;17.80;;;6.63;;
49460;SDS011;35355;49.198;-0.368;2024-01-30T02:38:04;17.27;;;7.78;;
49460;SDS011;35355;49.198;-0.368;2024-01-30T02:40:29;17.92;;;7.63;;
49460;SDS011;35355;49.198;-0.368;2024-01-30T02:42:55;21.45;;;6.75;;
49460;SDS011;35355;49.198;-0.368;2024-01-30T02:45:21;22.50;;;6.60;;
49460;SDS011;35355;49.198;-0.368;2024-01-30T02:47:47;16.70;;;6.32;;
49460;SDS011;35355;49.198;-0.368;2024-01-30T02:50:12;19.35;;;6.03;;
49460;SDS011;35355;49.198;-0.368;2024-01-30T02:52:38;12.63;;;5.45;;
49460;SDS011;35355;49.198;-0.368;2024-01-30T02:55:03;15.25;;;5.60;;
49460;SDS011;35355;49.198;-0.368;2024-01-30T02:57:29;17.80;;;5.20;;
49460;SDS011;35355;49.198;-0.368;2024-01-30T02:59:54;18.25;;;6.30;;
49460;SDS011;35355;49.198;-0.368;2024-01-30T03:02:20;10.50;;;4.50;;
49460;SDS011;35355;49.198;-0.368;2024-01-30T03:04:45;13.27;;;4.72;;
49460;SDS011;35355;49.198;-0.368;2024-01-30T03:07:10;16.25;;;3.47;;
49460;SDS011;35355;49.198;-0.368;2024-01-30T03:09:36;15.15;;;4.28;;
49460;SDS011;35355;49.198;-0.368;2024-01-30T03:12:02;14.57;;;2.88;;
49460;SDS011;35355;49.198;-0.368;2024-01-30T03:14:30;16.27;;;2.50;;
49460;SDS011;35355;49.198;-0.368;2024-01-30T03:16:56;18.73;;;3.03;;
49460;SDS011;35355;49.198;-0.368;2024-01-30T03:19:21;11.18;;;2.35;;
49460;SDS011;35355;49.198;-0.368;2024-01-30T03:21:46;13.40;;;2.72;;
49460;SDS011;35355;49.198;-0.368;2024-01-30T03:24:12;17.60;;;2.13;;
49460;SDS011;35355;49.198;-0.368;2024-01-30T03:26:37;7.43;;;2.35;;
49460;SDS011;35355;49.198;-0.368;2024-01-30T03:29:02;18.23;;;1.88;;
49460;SDS011;35355;49.198;-0.368;2024-01-30T03:31:28;12.57;;;1.63;;
49460;SDS011;35355;49.198;-0.368;2024-01-30T03:33:53;19.33;;;1.75;;
49460;SDS011;35355;49.198;-0.368;2024-01-30T03:36:18;8.00;;;1.27;;
49460;SDS011;35355;49.198;-0.368;2024-01-30T03:38:44;7.53;;;1.35;;
49460;SDS011;35355;49.198;-0.368;2024-01-30T03:41:10;7.78;;;1.75;;
49460;SDS011;35355;49.198;-0.368;2024-01-30T03:43:35;8.50;;;0.90;;
49460;SDS011;35355;49.198;-0.368;2024-01-30T03:46:01;11.00;;;1.42;;
49460;SDS011;35355;49.198;-0.368;2024-01-30T03:48:28;6.93;;;1.23;;
49460;SDS011;35355;49.198;-0.368;2024-01-30T03:50:54;9.38;;;1.15;;
49460;SDS011;35355;49.198;-0.368;2024-01-30T03:53:19;9.40;;;0.80;;
49460;SDS011;35355;49.198;-0.368;2024-01-30T03:55:44;6.13;;;0.77;;
49460;SDS011;35355;49.198;-0.368;2024-01-30T03:58:10;5.40;;;0.90;;
49460;SDS011;35355;49.198;-0.368;2024-01-30T04:00:35;9.50;;;0.80;;
49460;SDS011;35355;49.198;-0.368;2024-01-30T04:03:01;5.15;;;0.60;;
49460;SDS011;35355;49.198;-0.368;2024-01-30T04:05:26;6.88;;;0.90;;
49460;SDS011;35355;49.198;-0.368;2024-01-30T04:07:51;8.95;;;0.98;;
49460;SDS011;35355;49.198;-0.368;2024-01-30T04:10:17;5.63;;;0.70;;
49460;SDS011;35355;49.198;-0.368;2024-01-30T04:12:42;7.68;;;0.90;;
49460;SDS011;35355;49.198;-0.368;2024-01-30T04:15:08;6.00;;;0.85;;
49460;SDS011;35355;49.198;-0.368;2024-01-30T04:17:33;5.45;;;0.60;;
49460;SDS011;35355;49.198;-0.368;2024-01-30T04:19:58;5.05;;;1.25;;
49460;SDS011;35355;49.198;-0.368;2024-01-30T04:22:24;9.57;;;0.90;;
49460;SDS011;35355;49.198;-0.368;2024-01-30T04:24:49;6.60;;;0.57;;
49460;SDS011;35355;49.198;-0.368;2024-01-30T04:27:14;5.43;;;0.70;;
49460;SDS011;35355;49.198;-0.368;2024-01-30T04:29:40;4.63;;;0.40;;
49460;SDS011;35355;49.198;-0.368;2024-01-30T04:32:05;6.45;;;0.73;;
49460;SDS011;35355;49.198;-0.368;2024-01-30T04:34:31;5.38;;;0.40;;
49460;SDS011;35355;49.198;-0.368;2024-01-30T04:36:56;8.50;;;0.73;;
49460;SDS011;35355;49.198;-0.368;2024-01-30T04:39:22;5.63;;;0.43;;
49460;SDS011;35355;49.198;-0.368;2024-01-30T04:41:47;5.78;;;0.70;;
49460;SDS011;35355;49.198;-0.368;2024-01-30T04:44:13;4.75;;;0.50;;
49460;SDS011;35355;49.198;-0.368;2024-01-30T04:46:38;4.15;;;0.38;;
49460;SDS011;35355;49.198;-0.368;2024-01-30T04:49:04;5.38;;;0.70;;
49460;SDS011;35355;49.198;-0.368;2024-01-30T04:51:29;1.27;;;0.63;;
49460;SDS011;35355;49.198;-0.368;2024-01-30T04:53:54;4.47;;;0.20;;
49460;SDS011;35355;49.198;-0.368;2024-01-30T04:56:20;5.85;;;0.50;;
49460;SDS011;35355;49.198;-0.368;2024-01-30T04:58:45;7.15;;;0.50;;
49460;SDS011;35355;49.198;-0.368;2024-01-30T05:01:14;5.07;;;0.50;;
49460;SDS011;35355;49.198;-0.368;2024-01-30T05:03:41;6.05;;;0.60;;
49460;SDS011;35355;49.198;-0.368;2024-01-30T05:06:06;5.10;;;0.63;;
49460;SDS011;35355;49.198;-0.368;2024-01-30T05:08:31;6.95;;;0.50;;
49460;SDS011;35355;49.198;-0.368;2024-01-30T05:10:59;3.00;;;0.20;;
49460;SDS011;35355;49.198;-0.368;2024-01-30T05:13:25;1.10;;;0.20;;
49460;SDS011;35355;49.198;-0.368;2024-01-30T05:15:50;5.68;;;0.40;;
49460;SDS011;35355;49.198;-0.368;2024-01-30T05:18:16;10.77;;;0.50;;
49460;SDS011;35355;49.198;-0.368;2024-01-30T05:20:41;2.95;;;0.50;;
49460;SDS011;35355;49.198;-0.368;2024-01-30T05:23:06;5.10;;;0.30;;
49460;SDS011;35355;49.198;-0.368;2024-01-30T05:25:32;1.55;;;0.25;;
49460;SDS011;35355;49.198;-0.368;2024-01-30T05:27:57;2.83;;;0.20;;
49460;SDS011;35355;49.198;-0.368;2024-01-30T05:30:22;1.85;;;0.25;;
49460;SDS011;35355;49.198;-0.368;2024-01-30T05:32:48;1.65;;;0.20;;
49460;SDS011;35355;49.198;-0.368;2024-01-30T05:35:14;1.20;;;0.10;;
49460;SDS011;35355;49.198;-0.368;2024-01-30T05:37:39;4.63;;;0.20;;
49460;SDS011;35355;49.198;-0.368;2024-01-30T05:40:05;2.08;;;0.10;;
49460;SDS011;35355;49.198;-0.368;2024-01-30T05:42:31;0.63;;;0.10;;
49460;SDS011;35355;49.198;-0.368;2024-01-30T05:44:56;1.38;;;0.10;;
49460;SDS011;35355;49.198;-0.368;2024-01-30T05:47:22;5.82;;;0.10;;
49460;SDS011;35355;49.198;-0.368;2024-01-30T05:49:47;0.08;;;0.05;;
49460;SDS011;35355;49.198;-0.368;2024-01-30T05:52:13;0.75;;;0.10;;
49460;SDS011;35355;49.198;-0.368;2024-01-30T05:54:38;0.75;;;0.10;;
49460;SDS011;35355;49.198;-0.368;2024-01-30T05:57:03;0.28;;;0.10;;
49460;SDS011;35355;49.198;-0.368;2024-01-30T05:59:29;1.45;;;0.10;;
49460;SDS011;35355;49.198;-0.368;2024-01-30T06:01:54;0.75;;;0.10;;
49460;SDS011;35355;49.198;-0.368;2024-01-30T06:04:20;0.50;;;0.10;;
49460;SDS011;35355;49.198;-0.368;2024-01-30T06:06:45;1.75;;;0.32;;
49460;SDS011;35355;49.198;-0.368;2024-01-30T06:09:10;1.90;;;0.10;;
49460;SDS011;35355;49.198;-0.368;2024-01-30T06:11:37;2.75;;;0.10;;
49460;SDS011;35355;49.198;-0.368;2024-01-30T06:14:03;0.93;;;0.10;;
49460;SDS011;35355;49.198;-0.368;2024-01-30T06:16:28;1.30;;;0.05;;
49460;SDS011;35355;49.198;-0.368;2024-01-30T06:18:54;2.60;;;0.20;;
49460;SDS011;35355;49.198;-0.368;2024-01-30T06:21:20;0.35;;;0.00;;
49460;SDS011;35355;49.198;-0.368;2024-01-30T06:23:46;0.20;;;0.10;;
49460;SDS011;35355;49.198;-0.368;2024-01-30T06:26:11;2.25;;;0.20;;
49460;SDS011;35355;49.198;-0.368;2024-01-30T06:28:37;0.95;;;0.65;;
49460;SDS011;35355;49.198;-0.368;2024-01-30T06:31:02;1.27;;;0.10;;
49460;SDS011;35355;49.198;-0.368;2024-01-30T06:33:27;1.58;;;0.10;;
49460;SDS011;35355;49.198;-0.368;2024-01-30T06:35:53;0.77;;;0.10;;
49460;SDS011;35355;49.198;-0.368;2024-01-30T06:38:18;2.08;;;0.10;;
49460;SDS011;35355;49.198;-0.368;2024-01-30T06:40:44;0.80;;;0.20;;
49460;SDS011;35355;49.198;-0.368;2024-01-30T06:43:09;2.30;;;0.20;;
49460;SDS011;35355;49.198;-0.368;2024-01-30T06:45:34;0.93;;;0.10;;
49460;SDS011;35355;49.198;-0.368;2024-01-30T06:48:00;1.48;;;0.13;;
49460;SDS011;35355;49.198;-0.368;2024-01-30T06:50:26;1.65;;;0.20;;
49460;SDS011;35355;49.198;-0.368;2024-01-30T06:52:51;1.45;;;0.20;;
49460;SDS011;35355;49.198;-0.368;2024-01-30T06:55:17;2.75;;;0.30;;
49460;SDS011;35355;49.198;-0.368;2024-01-30T06:57:43;5.50;;;0.20;;
49460;SDS011;35355;49.198;-0.368;2024-01-30T07:00:08;3.30;;;0.30;;
49460;SDS011;35355;49.198;-0.368;2024-01-30T07:02:34;1.05;;;0.20;;
49460;SDS011;35355;49.198;-0.368;2024-01-30T07:04:59;2.45;;;0.52;;
49460;SDS011;35355;49.198;-0.368;2024-01-30T07:07:25;4.63;;;0.30;;
49460;SDS011;35355;49.198;-0.368;2024-01-30T07:09:50;2.50;;;0.40;;
49460;SDS011;35355;49.198;-0.368;2024-01-30T07:12:20;3.70;;;0.65;;
49460;SDS011;35355;49.198;-0.368;2024-01-30T07:14:46;2.92;;;0.60;;
49460;SDS011;35355;49.198;-0.368;2024-01-30T07:17:11;2.85;;;0.50;;
49460;SDS011;35355;49.198;-0.368;2024-01-30T07:19:36;1.95;;;0.47;;
49460;SDS011;35355;49.198;-0.368;2024-01-30T07:22:02;1.63;;;0.40;;
49460;SDS011;35355;49.198;-0.368;2024-01-30T07:24:27;4.13;;;0.40;;
49460;SDS011;35355;49.198;-0.368;2024-01-30T07:26:52;5.45;;;0.50;;
49460;SDS011;35355;49.198;-0.368;2024-01-30T07:29:18;2.03;;;0.35;;
49460;SDS011;35355;49.198;-0.368;2024-01-30T07:31:43;3.47;;;0.38;;
49460;SDS011;35355;49.198;-0.368;2024-01-30T07:34:08;5.38;;;0.65;;
49460;SDS011;35355;49.198;-0.368;2024-01-30T07:36:34;2.15;;;0.40;;
49460;SDS011;35355;49.198;-0.368;2024-01-30T07:38:59;3.10;;;0.25;;
49460;SDS011;35355;49.198;-0.368;2024-01-30T07:41:25;0.50;;;0.20;;
49460;SDS011;35355;49.198;-0.368;2024-01-30T07:43:50;5.50;;;0.40;;
49460;SDS011;35355;49.198;-0.368;2024-01-30T07:46:16;0.30;;;0.10;;
49460;SDS011;35355;49.198;-0.368;2024-01-30T07:48:41;1.48;;;0.40;;
49460;SDS011;35355;49.198;-0.368;2024-01-30T07:51:06;2.10;;;0.20;;
49460;SDS011;35355;49.198;-0.368;2024-01-30T07:53:32;1.23;;;0.20;;
49460;SDS011;35355;49.198;-0.368;2024-01-30T07:55:57;5.38;;;0.40;;
49460;SDS011;35355;49.198;-0.368;2024-01-30T07:58:22;3.38;;;0.20;;
49460;SDS011;35355;49.198;-0.368;2024-01-30T08:00:48;2.63;;;0.20;;
49460;SDS011;35355;49.198;-0.368;2024-01-30T08:03:14;0.88;;;0.20;;
49460;SDS011;35355;49.198;-0.368;2024-01-30T08:05:41;4.80;;;0.30;;
49460;SDS011;35355;49.198;-0.368;2024-01-30T08:08:07;2.58;;;0.25;;
49460;SDS011;35355;49.198;-0.368;2024-01-30T08:10:32;6.20;;;0.63;;
49460;SDS011;35355;49.198;-0.368;2024-01-30T08:12:57;13.13;;;1.75;;
49460;SDS011;35355;49.198;-0.368;2024-01-30T08:15:23;5.50;;;0.55;;
49460;SDS011;35355;49.198;-0.368;2024-01-30T08:17:48;3.30;;;0.40;;
49460;SDS011;35355;49.198;-0.368;2024-01-30T08:20:14;0.75;;;0.30;;
49460;SDS011;35355;49.198;-0.368;2024-01-30T08:22:39;2.72;;;0.30;;
49460;SDS011;35355;49.198;-0.368;2024-01-30T08:25:08;1.67;;;0.57;;
49460;SDS011;35355;49.198;-0.368;2024-01-30T08:27:34;2.72;;;0.50;;
49460;SDS011;35355;49.198;-0.368;2024-01-30T08:30:02;1.65;;;0.40;;
49460;SDS011;35355;49.198;-0.368;2024-01-30T08:32:27;4.40;;;0.60;;
49460;SDS011;35355;49.198;-0.368;2024-01-30T08:34:53;3.42;;;0.52;;
49460;SDS011;35355;49.198;-0.368;2024-01-30T08:37:18;2.50;;;0.85;;
49460;SDS011;35355;49.198;-0.368;2024-01-30T08:39:44;2.60;;;0.70;;
49460;SDS011;35355;49.198;-0.368;2024-01-30T08:42:09;3.80;;;0.93;;
49460;SDS011;35355;49.198;-0.368;2024-01-30T08:44:35;2.05;;;0.50;;
49460;SDS011;35355;49.198;-0.368;2024-01-30T08:47:00;6.57;;;0.77;;
49460;SDS011;35355;49.198;-0.368;2024-01-30T08:49:26;1.10;;;0.70;;
49460;SDS011;35355;49.198;-0.368;2024-01-30T08:51:51;4.40;;;0.60;;
49460;SDS011;35355;49.198;-0.368;2024-01-30T08:54:16;4.75;;;0.60;;
49460;SDS011;35355;49.198;-0.368;2024-01-30T08:56:42;3.72;;;1.15;;
49460;SDS011;35355;49.198;-0.368;2024-01-30T08:59:08;2.03;;;0.60;;
49460;SDS011;35355;49.198;-0.368;2024-01-30T09:01:33;6.22;;;1.00;;
49460;SDS011;35355;49.198;-0.368;2024-01-30T09:03:59;1.63;;;0.47;;
49460;SDS011;35355;49.198;-0.368;2024-01-30T09:06:24;3.58;;;0.75;;
49460;SDS011;35355;49.198;-0.368;2024-01-30T09:08:51;2.60;;;0.60;;
49460;SDS011;35355;49.198;-0.368;2024-01-30T09:11:18;1.85;;;0.40;;
49460;SDS011;35355;49.198;-0.368;2024-01-30T09:13:43;4.30;;;0.80;;
49460;SDS011;35355;49.198;-0.368;2024-01-30T09:16:09;3.47;;;0.70;;
49460;SDS011;35355;49.198;-0.368;2024-01-30T09:18:34;7.88;;;0.75;;
49460;SDS011;35355;49.198;-0.368;2024-01-30T09:20:59;3.45;;;1.02;;
49460;SDS011;35355;49.198;-0.368;2024-01-30T09:23:26;5.90;;;1.15;;
49460;SDS011;35355;49.198;-0.368;2024-01-30T09:25:52;0.95;;;0.45;;
49460;SDS011;35355;49.198;-0.368;2024-01-30T09:28:17;2.25;;;0.68;;
49460;SDS011;35355;49.198;-0.368;2024-01-30T09:30:43;2.97;;;0.70;;
49460;SDS011;35355;49.198;-0.368;2024-01-30T09:33:08;2.80;;;0.70;;
49460;SDS011;35355;49.198;-0.368;2024-01-30T09:35:33;2.78;;;0.80;;
49460;SDS011;35355;49.198;-0.368;2024-01-30T09:37:59;1.75;;;0.32;;
49460;SDS011;35355;49.198;-0.368;2024-01-30T09:40:25;4.18;;;0.30;;
49460;SDS011;35355;49.198;-0.368;2024-01-30T09:42:51;2.10;;;0.50;;
49460;SDS011;35355;49.198;-0.368;2024-01-30T09:45:19;5.82;;;0.60;;
49460;SDS011;35355;49.198;-0.368;2024-01-30T09:47:48;2.60;;;0.60;;
49460;SDS011;35355;49.198;-0.368;2024-01-30T09:50:14;1.20;;;0.32;;
49460;SDS011;35355;49.198;-0.368;2024-01-30T09:52:40;2.45;;;0.40;;
49460;SDS011;35355;49.198;-0.368;2024-01-30T09:55:06;6.15;;;0.32;;
49460;SDS011;35355;49.198;-0.368;2024-01-30T09:57:32;3.60;;;0.47;;
49460;SDS011;35355;49.198;-0.368;2024-01-30T09:59:58;6.32;;;0.70;;
49460;SDS011;35355;49.198;-0.368;2024-01-30T10:02:24;3.50;;;0.40;;
49460;SDS011;35355;49.198;-0.368;2024-01-30T10:04:50;4.40;;;0.40;;
49460;SDS011;35355;49.198;-0.368;2024-01-30T10:07:16;1.38;;;0.20;;
49460;SDS011;35355;49.198;-0.368;2024-01-30T10:09:42;2.10;;;0.45;;
49460;SDS011;35355;49.198;-0.368;2024-01-30T10:12:08;2.25;;;0.17;;
49460;SDS011;35355;49.198;-0.368;2024-01-30T10:14:37;4.75;;;1.02;;
49460;SDS011;35355;49.198;-0.368;2024-01-30T10:17:03;5.68;;;0.65;;
49460;SDS011;35355;49.198;-0.368;2024-01-30T10:19:30;5.68;;;0.40;;
49460;SDS011;35355;49.198;-0.368;2024-01-30T10:21:56;3.95;;;0.50;;
49460;SDS011;35355;49.198;-0.368;2024-01-30T10:24:25;2.45;;;0.45;;
49460;SDS011;35355;49.198;-0.368;2024-01-30T10:26:51;7.78;;;0.90;;
49460;SDS011;35355;49.198;-0.368;2024-01-30T10:29:17;5.78;;;0.40;;
49460;SDS011;35355;49.198;-0.368;2024-01-30T10:31:42;3.33;;;0.38;;
49460;SDS011;35355;49.198;-0.368;2024-01-30T10:34:07;4.00;;;0.60;;
49460;SDS011;35355;49.198;-0.368;2024-01-30T10:36:33;14.75;;;1.30;;
49460;SDS011;35355;49.198;-0.368;2024-01-30T10:39:04;3.80;;;1.50;;
49460;SDS011;35355;49.198;-0.368;2024-01-30T10:41:31;5.43;;;0.40;;
49460;SDS011;35355;49.198;-0.368;2024-01-30T10:44:08;7.90;;;0.65;;
49460;SDS011;35355;49.198;-0.368;2024-01-30T10:46:34;9.00;;;0.63;;
49460;SDS011;35355;49.198;-0.368;2024-01-30T10:49:02;5.45;;;0.40;;
49460;SDS011;35355;49.198;-0.368;2024-01-30T10:51:29;2.65;;;0.30;;
49460;SDS011;35355;49.198;-0.368;2024-01-30T10:53:56;3.75;;;0.57;;
49460;SDS011;35355;49.198;-0.368;2024-01-30T10:56:22;1.40;;;0.32;;
49460;SDS011;35355;49.198;-0.368;2024-01-30T10:58:51;5.20;;;0.43;;
49460;SDS011;35355;49.198;-0.368;2024-01-30T11:01:18;7.60;;;0.82;;
49460;SDS011;35355;49.198;-0.368;2024-01-30T11:03:47;4.13;;;1.05;;
49460;SDS011;35355;49.198;-0.368;2024-01-30T11:06:16;6.85;;;0.77;;
49460;SDS011;35355;49.198;-0.368;2024-01-30T11:08:45;4.78;;;0.63;;
49460;SDS011;35355;49.198;-0.368;2024-01-30T11:11:10;3.25;;;0.50;;
49460;SDS011;35355;49.198;-0.368;2024-01-30T11:13:36;5.20;;;1.20;;
49460;SDS011;35355;49.198;-0.368;2024-01-30T11:16:02;4.55;;;0.60;;
49460;SDS011;35355;49.198;-0.368;2024-01-30T11:18:29;5.72;;;0.77;;
49460;SDS011;35355;49.198;-0.368;2024-01-30T11:20:58;5.53;;;0.68;;
49460;SDS011;35355;49.198;-0.368;2024-01-30T11:23:26;2.05;;;0.57;;
49460;SDS011;35355;49.198;-0.368;2024-01-30T11:25:52;2.47;;;0.40;;
49460;SDS011;35355;49.198;-0.368;2024-01-30T11:28:18;1.83;;;0.55;;
49460;SDS011;35355;49.198;-0.368;2024-01-30T11:30:43;4.15;;;0.32;;
49460;SDS011;35355;49.198;-0.368;2024-01-30T11:33:10;2.17;;;0.40;;
49460;SDS011;35355;49.198;-0.368;2024-01-30T11:35:37;3.42;;;0.38;;
49460;SDS011;35355;49.198;-0.368;2024-01-30T11:38:07;5.05;;;0.57;;
49460;SDS011;35355;49.198;-0.368;2024-01-30T11:40:34;4.32;;;0.45;;
49460;SDS011;35355;49.198;-0.368;2024-01-30T11:43:01;4.90;;;0.50;;
49460;SDS011;35355;49.198;-0.368;2024-01-30T11:45:28;4.13;;;0.35;;
49460;SDS011;35355;49.198;-0.368;2024-01-30T11:47:54;3.47;;;0.40;;
49460;SDS011;35355;49.198;-0.368;2024-01-30T11:50:20;5.43;;;0.47;;
49460;SDS011;35355;49.198;-0.368;2024-01-30T11:52:45;4.05;;;0.52;;
49460;SDS011;35355;49.198;-0.368;2024-01-30T11:55:12;2.70;;;0.60;;
49460;SDS011;35355;49.198;-0.368;2024-01-30T11:57:38;4.30;;;0.32;;
49460;SDS011;35355;49.198;-0.368;2024-01-30T12:00:05;3.72;;;0.55;;
49460;SDS011;35355;49.198;-0.368;2024-01-30T12:02:41;2.70;;;0.40;;
49460;SDS011;35355;49.198;-0.368;2024-01-30T12:05:07;5.95;;;0.57;;
49460;SDS011;35355;49.198;-0.368;2024-01-30T12:07:34;5.18;;;0.40;;
49460;SDS011;35355;49.198;-0.368;2024-01-30T12:10:00;1.30;;;0.32;;
49460;SDS011;35355;49.198;-0.368;2024-01-30T12:12:25;2.50;;;0.52;;
49460;SDS011;35355;49.198;-0.368;2024-01-30T12:14:51;3.38;;;0.75;;
49460;SDS011;35355;49.198;-0.368;2024-01-30T12:17:30;5.05;;;0.40;;
49460;SDS011;35355;49.198;-0.368;2024-01-30T12:20:05;3.00;;;0.47;;
49460;SDS011;35355;49.198;-0.368;2024-01-30T12:22:32;5.20;;;0.30;;
49460;SDS011;35355;49.198;-0.368;2024-01-30T12:25:00;4.93;;;1.17;;
49460;SDS011;35355;49.198;-0.368;2024-01-30T12:27:26;2.70;;;0.30;;
49460;SDS011;35355;49.198;-0.368;2024-01-30T12:29:55;5.45;;;0.47;;
49460;SDS011;35355;49.198;-0.368;2024-01-30T12:32:24;5.10;;;1.23;;
49460;SDS011;35355;49.198;-0.368;2024-01-30T12:34:49;2.90;;;0.35;;
49460;SDS011;35355;49.198;-0.368;2024-01-30T12:37:14;1.55;;;0.43;;
49460;SDS011;35355;49.198;-0.368;2024-01-30T12:39:44;3.78;;;0.40;;
49460;SDS011;35355;49.198;-0.368;2024-01-30T12:42:10;2.03;;;0.40;;
49460;SDS011;35355;49.198;-0.368;2024-01-30T12:44:35;3.88;;;0.70;;
49460;SDS011;35355;49.198;-0.368;2024-01-30T12:47:04;5.30;;;0.60;;
49460;SDS011;35355;49.198;-0.368;2024-01-30T12:49:29;6.28;;;0.50;;
49460;SDS011;35355;49.198;-0.368;2024-01-30T12:51:55;3.92;;;0.63;;
49460;SDS011;35355;49.198;-0.368;2024-01-30T12:54:22;4.70;;;0.63;;
49460;SDS011;35355;49.198;-0.368;2024-01-30T12:56:48;2.33;;;0.50;;
49460;SDS011;35355;49.198;-0.368;2024-01-30T12:59:13;3.85;;;0.57;;
49460;SDS011;35355;49.198;-0.368;2024-01-30T13:01:38;4.38;;;0.50;;
49460;SDS011;35355;49.198;-0.368;2024-01-30T13:04:04;5.15;;;1.95;;
49460;SDS011;35355;49.198;-0.368;2024-01-30T13:06:29;6.95;;;0.50;;
49460;SDS011;35355;49.198;-0.368;2024-01-30T13:08:54;4.50;;;0.30;;
49460;SDS011;35355;49.198;-0.368;2024-01-30T13:11:20;6.15;;;0.60;;
49460;SDS011;35355;49.198;-0.368;2024-01-30T13:13:45;1.15;;;0.30;;
49460;SDS011;35355;49.198;-0.368;2024-01-30T13:16:10;2.60;;;0.40;;
49460;SDS011;35355;49.198;-0.368;2024-01-30T13:18:36;4.95;;;0.57;;
49460;SDS011;35355;49.198;-0.368;2024-01-30T13:21:01;11.68;;;0.63;;
49460;SDS011;35355;49.198;-0.368;2024-01-30T13:23:27;3.67;;;0.30;;
49460;SDS011;35355;49.198;-0.368;2024-01-30T13:25:53;6.90;;;0.55;;
49460;SDS011;35355;49.198;-0.368;2024-01-30T13:28:22;5.05;;;0.38;;
49460;SDS011;35355;49.198;-0.368;2024-01-30T13:30:48;3.17;;;0.47;;
49460;SDS011;35355;49.198;-0.368;2024-01-30T13:33:13;11.90;;;1.30;;
49460;SDS011;35355;49.198;-0.368;2024-01-30T13:35:38;4.47;;;0.55;;
49460;SDS011;35355;49.198;-0.368;2024-01-30T13:38:04;3.85;;;0.32;;
49460;SDS011;35355;49.198;-0.368;2024-01-30T13:40:29;3.53;;;1.17;;
49460;SDS011;35355;49.198;-0.368;2024-01-30T13:42:54;2.88;;;0.30;;
49460;SDS011;35355;49.198;-0.368;2024-01-30T13:45:20;4.55;;;0.43;;
49460;SDS011;35355;49.198;-0.368;2024-01-30T13:47:45;2.20;;;0.30;;
49460;SDS011;35355;49.198;-0.368;2024-01-30T13:50:11;2.70;;;0.30;;
49460;SDS011;35355;49.198;-0.368;2024-01-30T13:52:40;3.05;;;0.30;;
49460;SDS011;35355;49.198;-0.368;2024-01-30T13:55:06;0.70;;;0.40;;
49460;SDS011;35355;49.198;-0.368;2024-01-30T13:57:31;1.88;;;0.60;;
49460;SDS011;35355;49.198;-0.368;2024-01-30T14:00:00;3.13;;;0.52;;
49460;SDS011;35355;49.198;-0.368;2024-01-30T14:02:25;1.65;;;0.30;;
49460;SDS011;35355;49.198;-0.368;2024-01-30T14:04:50;4.65;;;0.60;;
49460;SDS011;35355;49.198;-0.368;2024-01-30T14:07:16;2.30;;;0.28;;
49460;SDS011;35355;49.198;-0.368;2024-01-30T14:09:43;4.07;;;0.73;;
49460;SDS011;35355;49.198;-0.368;2024-01-30T14:12:09;6.25;;;0.80;;
49460;SDS011;35355;49.198;-0.368;2024-01-30T14:14:34;3.08;;;0.43;;
49460;SDS011;35355;49.198;-0.368;2024-01-30T14:17:00;3.78;;;0.47;;
49460;SDS011;35355;49.198;-0.368;2024-01-30T14:19:25;4.90;;;0.40;;
49460;SDS011;35355;49.198;-0.368;2024-01-30T14:21:50;1.73;;;0.68;;
49460;SDS011;35355;49.198;-0.368;2024-01-30T14:24:16;1.55;;;1.10;;